This is the latest recevied weather packets stored in our database for station/object SP3ZBZ-13. If no packets are shown the sender has not sent any weather packets the latest 10 day(s).
| Time | Temp. | Humidity | Pressure | Rain* | Wind** | Luminosity | Snow |
|---|---|---|---|---|---|---|---|
| 1777506026 | 0° C | 73% | 1027.5 hPa | - | - | - | - |
| 1777505125 | 0.56° C | 72% | 1027.6 hPa | - | - | - | - |
| 1777504224 | 0.56° C | 71% | 1027.6 hPa | - | - | - | - |
| 1777503324 | 0.56° C | 74% | 1027.6 hPa | - | - | - | - |
| 1777502423 | 1.67° C | 70% | 1027.5 hPa | - | - | - | - |
| 1777501521 | 1.67° C | 68% | 1027.4 hPa | - | - | - | - |
| 1777500620 | 1.67° C | 69% | 1027.3 hPa | - | - | - | - |
| 1777499719 | 2.22° C | 68% | 1027.1 hPa | - | - | - | - |
| 1777498818 | 2.22° C | 65% | 1027.1 hPa | - | - | - | - |
| 1777497917 | 2.22° C | 65% | 1027.1 hPa | - | - | - | - |
| 1777496115 | 2.78° C | 66% | 1026.9 hPa | - | - | - | - |
| 1777495214 | 3.89° C | 61% | 1026.8 hPa | - | - | - | - |
| 1777494313 | 3.89° C | 58% | 1026.8 hPa | - | - | - | - |
| 1777493412 | 3.89° C | 57% | 1026.7 hPa | - | - | - | - |
| 1777492511 | 3.89° C | 55% | 1026.6 hPa | - | - | - | - |
| 1777491610 | 4.44° C | 53% | 1026.4 hPa | - | - | - | - |
| 1777490709 | 5° C | 53% | 1026.3 hPa | - | - | - | - |
| 1777489808 | 5.56° C | 53% | 1026.2 hPa | - | - | - | - |
| 1777488907 | 6.11° C | 53% | 1026.1 hPa | - | - | - | - |
| 1777488005 | 7.78° C | 50% | 1025.8 hPa | - | - | - | - |
| 1777487104 | 8.89° C | 39% | 1025.7 hPa | - | - | 1 W/m² | - |
| 1777486203 | 9.44° C | 40% | 1025.6 hPa | - | - | 4 W/m² | - |
| 1777485302 | 10° C | 36% | 1025.5 hPa | - | - | 13 W/m² | - |
| 1777484401 | 10.56° C | 35% | 1025.4 hPa | - | - | 24 W/m² | - |
| 1777483500 | 11.11° C | 33% | 1025.3 hPa | - | - | 34 W/m² | - |
* Rain since midnight (hover to see other rain measurements)
** Current wind speed in m/s (hover to see current wind gust speed)